Thonotosassa, FL (33592)

5:25 PM EDT en Octubre 31, 2014 (GMT -0400)
Thonotosassa | Change Station
CLOSE
Current Station
Estación meteorológica personal
Location: Thonotosassa, FL
Altura: 53 ft
Estaciones meteorológicas cercanas
Aviso en curso: Lake Wind Advisory

Alt 53 ft 28.06 °N, 82.32 °W | Updated 1 second ago

Despejado
Despejado
71.2 ° F
Sensación térmica 76 ° F
N
3.8
Viento Variable Viento desde NNO
Gusts 9.2 mph

Hoy
Alta -- | Baja -- ° F
--% Posibilidad de precipitaciones
Ayer
Alta -- | Baja -- ° F
Precip. -- pul
7:39 AM 6:45 PM
Cuarto creciente, 59% visible
Presión 29.86 pul
Visibilidad 10.0 Millas
Nubes Despejado
Índice de calor 76 ° F
Punto de rocío 55 ° F
Humedad 57%
Precipitaciones 0.00 pul
Espesor de la nieve No disponible.
UV 1 de una escala de 12
Polen 4.90 de una escala de 12
Calidad del aire No disponible.
Flu Activity No disponible.
METAR KVDF 312115Z AUTO 32007KT 295V355 10SM CLR 23/09 A2986 RMK AO2

More Conditions Fewer Conditions

Presión 29.86 pul
Visibilidad 10.0 Millas
Nubes Despejado
Índice de calor 76 ° F
Punto de rocío 55 ° F
Humedad 57%
Precipitaciones 0.00 pul
Espesor de la nieve No disponible.
UV 1 de una escala de 12
Polen 4.90 de una escala de 12
Calidad del aire No disponible.
Flu Activity No disponible.
METAR KVDF 312115Z AUTO 32007KT 295V355 10SM CLR 23/09 A2986 RMK AO2

More Conditions Fewer Conditions

10-Day Weather Forecast

Almanac

Astronomía

Oct. 31, 2014 Salida Puesta
Hora real
Crepúsculo civil
Crepúsculo náutico
Crepúsculo astronómico
Luna
Horas de luz
Horas de luz
Tomorrow will be .
, % of the Moon is Illuminated

Extremos de hoy

Máximos del estado Bajos del estado

Community

WunderPhotos

Upload Photos

1,766,734 ¡fotos cargadas!

WunderBlogs® & News

Nearby

Calidad del aire

  Calidad del aire Índice AQ Contaminante
Not available.

Grosos de nieve

Estación Profundido Altura

Actividad de terremotos

Ciudad Distance Mag. Tiempo y dato
Magnitud mínima muestra es 2,5.

Temperaturas de aguas costeras

Lugar Temperatura

Estaciones meteorológicas cercanas